createdAt,value
2019-02-19T00:01:08.754Z,2.64
2019-02-19T00:03:37.384Z,2.53
2019-02-19T00:06:06.033Z,2.46
2019-02-19T00:08:34.584Z,2.45
2019-02-19T00:11:03.363Z,2.54
2019-02-19T00:13:31.985Z,2.43
2019-02-19T00:16:00.615Z,2.36
2019-02-19T00:18:29.237Z,2.31
2019-02-19T00:20:57.907Z,2.24
2019-02-19T00:23:26.460Z,2.26
2019-02-19T00:25:54.957Z,2.21
2019-02-19T00:28:23.613Z,2.14
2019-02-19T00:30:52.282Z,2.13
2019-02-19T00:33:20.774Z,2.10
2019-02-19T00:35:49.372Z,2.14
2019-02-19T00:38:17.996Z,2.12
2019-02-19T00:40:46.619Z,2.12
2019-02-19T00:43:15.157Z,2.04
2019-02-19T00:45:44.800Z,2.00
2019-02-19T00:48:13.417Z,1.97
2019-02-19T00:50:42.074Z,1.94
2019-02-19T00:53:10.558Z,1.91
2019-02-19T00:55:39.177Z,1.96
2019-02-19T00:58:08.069Z,1.93
2019-02-19T01:00:36.623Z,1.85
2019-02-19T01:03:05.286Z,1.81
2019-02-19T01:05:34.065Z,2.00
2019-02-19T01:08:02.631Z,2.09
2019-02-19T01:10:31.188Z,2.04
2019-02-19T01:13:00.169Z,1.93
2019-02-19T01:15:28.873Z,1.91
2019-02-19T01:17:57.379Z,1.99
2019-02-19T01:20:25.942Z,1.93
2019-02-19T01:22:54.603Z,1.83
2019-02-19T01:25:23.237Z,1.78
2019-02-19T01:27:51.793Z,1.77
2019-02-19T01:30:20.363Z,1.77
2019-02-19T01:32:48.987Z,1.73
2019-02-19T01:35:17.739Z,1.72
2019-02-19T01:37:47.296Z,1.73
2019-02-19T01:40:15.863Z,1.69
2019-02-19T01:42:44.486Z,1.78
2019-02-19T01:45:13.124Z,1.73
2019-02-19T01:47:41.725Z,1.73
2019-02-19T01:50:10.955Z,1.71
2019-02-19T01:52:39.573Z,1.68
2019-02-19T01:55:08.917Z,1.66
2019-02-19T01:57:37.462Z,1.61
2019-02-19T02:00:09.093Z,1.56
2019-02-19T02:02:37.721Z,1.52
2019-02-19T02:05:06.413Z,1.50
2019-02-19T02:07:34.993Z,1.48
2019-02-19T02:10:04.411Z,1.52
2019-02-19T02:12:33.047Z,1.49
2019-02-19T02:15:01.620Z,1.43
2019-02-19T02:17:30.278Z,1.41
2019-02-19T02:19:58.899Z,1.38
2019-02-19T02:22:27.396Z,1.37
2019-02-19T02:24:55.880Z,1.34
2019-02-19T02:27:24.504Z,1.29
2019-02-19T02:29:53.165Z,1.27
2019-02-19T02:32:21.647Z,1.26
2019-02-19T02:34:50.148Z,1.25
2019-02-19T02:37:19.045Z,1.25
2019-02-19T02:39:47.680Z,1.37
2019-02-19T02:42:32.275Z,1.41
2019-02-19T02:45:00.921Z,1.42
2019-02-19T02:47:29.556Z,1.33
2019-02-19T02:49:58.180Z,1.27
2019-02-19T02:52:26.700Z,1.19
2019-02-19T02:54:55.319Z,1.20
2019-02-19T02:57:23.880Z,1.26
2019-02-19T02:59:52.427Z,1.33
2019-02-19T03:02:21.037Z,1.35
2019-02-19T03:04:49.674Z,1.44
2019-02-19T03:07:28.476Z,1.49
2019-02-19T03:09:56.971Z,1.42
2019-02-19T03:12:25.601Z,1.26
2019-02-19T03:14:54.429Z,1.25
2019-02-19T03:17:22.997Z,1.35
2019-02-19T03:19:51.472Z,1.39
2019-02-19T03:22:20.168Z,1.34
2019-02-19T03:24:48.800Z,1.26
2019-02-19T03:27:17.292Z,1.18
2019-02-19T03:29:45.810Z,1.12
2019-02-19T03:32:14.436Z,1.01
2019-02-19T03:34:42.988Z,0.95
2019-02-19T03:37:11.864Z,0.90
2019-02-19T03:39:40.485Z,0.81
2019-02-19T03:42:09.111Z,0.73
2019-02-19T03:44:37.655Z,0.70
2019-02-19T03:47:06.276Z,0.59
2019-02-19T03:49:34.909Z,0.54
2019-02-19T03:52:03.518Z,0.44
2019-02-19T03:54:32.145Z,0.45
2019-02-19T03:57:01.082Z,0.47
2019-02-19T03:59:29.761Z,0.44
2019-02-19T04:01:58.486Z,0.45
2019-02-19T04:04:27.111Z,0.43
2019-02-19T04:06:55.794Z,0.47
2019-02-19T04:09:24.414Z,0.59
2019-02-19T04:11:52.910Z,0.66
2019-02-19T04:14:21.582Z,0.72
2019-02-19T04:16:50.081Z,0.76
2019-02-19T04:19:18.677Z,0.79
2019-02-19T04:21:47.346Z,0.82
2019-02-19T04:24:16.000Z,0.88
2019-02-19T04:26:44.480Z,0.91
2019-02-19T04:29:12.958Z,0.89
2019-02-19T04:31:41.625Z,0.86
2019-02-19T04:34:10.252Z,0.84
2019-02-19T04:36:38.809Z,0.89
2019-02-19T04:39:07.583Z,0.90
2019-02-19T04:41:36.217Z,0.87
2019-02-19T04:44:04.854Z,0.88
2019-02-19T04:46:33.617Z,0.84
2019-02-19T04:49:02.177Z,0.79
2019-02-19T04:51:30.801Z,0.59
2019-02-19T04:53:59.350Z,0.48
2019-02-19T04:56:27.971Z,0.55
2019-02-19T04:58:56.600Z,0.66
2019-02-19T05:01:25.202Z,0.69
2019-02-19T05:04:01.095Z,0.59
2019-02-19T05:06:29.920Z,0.58
2019-02-19T05:08:58.553Z,0.44
2019-02-19T05:15:10.511Z,0.45
2019-02-19T05:17:39.212Z,0.45
2019-02-19T05:20:09.337Z,0.42
2019-02-19T05:22:37.973Z,0.33
2019-02-19T05:25:08.033Z,0.53
2019-02-19T05:27:36.660Z,0.57
2019-02-19T05:30:10.719Z,0.62
2019-02-19T05:32:39.234Z,0.66
2019-02-19T05:35:08.670Z,0.74
2019-02-19T05:37:37.161Z,0.94
2019-02-19T05:40:08.046Z,1.17
2019-02-19T05:42:36.669Z,1.41
2019-02-19T05:45:08.272Z,1.71
2019-02-19T05:50:41.458Z,2.23
2019-02-19T05:53:10.141Z,2.69
2019-02-19T05:55:38.778Z,3.20
2019-02-19T05:58:07.282Z,3.68
2019-02-19T06:00:35.879Z,4.31
2019-02-19T06:03:04.520Z,4.72
2019-02-19T06:05:33.158Z,5.26
2019-02-19T06:08:01.746Z,5.63
2019-02-19T06:10:30.382Z,5.97
2019-02-19T06:12:59.014Z,6.22
2019-02-19T06:15:27.542Z,6.61
2019-02-19T06:17:56.170Z,6.94
2019-02-19T06:20:24.802Z,7.26
2019-02-19T06:22:53.345Z,7.62
2019-02-19T06:25:21.826Z,7.91
2019-02-19T06:27:50.554Z,8.40
2019-02-19T06:30:19.213Z,8.76
2019-02-19T06:32:47.702Z,8.58
2019-02-19T06:35:16.342Z,8.14
2019-02-19T06:37:45.029Z,8.41
2019-02-19T06:40:25.633Z,9.21
2019-02-19T06:42:54.299Z,9.60
2019-02-19T06:45:22.926Z,9.87
2019-02-19T06:47:51.564Z,9.72
2019-02-19T06:50:20.248Z,9.88
2019-02-19T06:52:48.748Z,9.64
2019-02-19T06:55:17.318Z,9.83
2019-02-19T06:57:45.976Z,9.99
2019-02-19T07:00:14.929Z,10.38
2019-02-19T07:02:50.631Z,10.61
2019-02-19T07:05:20.784Z,10.74
2019-02-19T07:07:49.419Z,11.11
2019-02-19T07:10:18.052Z,11.26
2019-02-19T07:12:46.555Z,11.38
2019-02-19T07:15:15.172Z,11.27
2019-02-19T07:17:43.803Z,11.23
2019-02-19T07:20:12.454Z,11.67
2019-02-19T07:22:40.962Z,11.68
2019-02-19T07:25:12.724Z,11.76
2019-02-19T07:27:41.399Z,12.01
2019-02-19T07:30:11.630Z,11.95
2019-02-19T07:32:40.270Z,11.71
2019-02-19T07:35:10.104Z,11.48
2019-02-19T07:37:38.664Z,11.21
2019-02-19T07:40:09.010Z,11.45
2019-02-19T07:42:37.645Z,11.10
2019-02-19T07:45:09.225Z,10.79
2019-02-19T07:47:37.859Z,10.90
2019-02-19T07:50:09.085Z,10.49
2019-02-19T07:52:38.022Z,10.10
2019-02-19T07:55:10.512Z,10.40
2019-02-19T07:57:39.109Z,10.54
2019-02-19T08:00:10.933Z,10.28
2019-02-19T08:02:39.553Z,10.71
2019-02-19T08:05:08.429Z,10.66
2019-02-19T08:07:36.911Z,10.83
2019-02-19T08:10:08.217Z,11.21
2019-02-19T08:12:37.025Z,11.24
2019-02-19T08:15:12.803Z,11.45
2019-02-19T08:17:41.438Z,11.37
2019-02-19T08:20:15.698Z,11.30
2019-02-19T08:22:40.665Z,11.18
2019-02-19T08:25:09.330Z,11.31
2019-02-19T08:27:37.959Z,11.16
2019-02-19T08:30:10.989Z,11.20
2019-02-19T08:32:39.192Z,10.97
2019-02-19T08:35:08.160Z,10.74
2019-02-19T08:37:36.790Z,10.88
2019-02-19T08:40:07.766Z,10.67
2019-02-19T08:42:36.267Z,10.76
2019-02-19T08:45:06.605Z,10.90
2019-02-19T08:47:42.248Z,10.47
2019-02-19T08:50:07.711Z,10.55
2019-02-19T08:52:36.238Z,10.68
2019-02-19T08:55:05.520Z,10.52
2019-02-19T08:57:34.021Z,10.32
2019-02-19T09:00:02.590Z,10.17
2019-02-19T09:02:31.267Z,10.05
2019-02-19T09:04:59.895Z,10.20
2019-02-19T09:07:28.387Z,10.32
2019-02-19T09:09:56.928Z,9.96
2019-02-19T09:12:25.560Z,9.71
2019-02-19T09:14:54.191Z,9.39
2019-02-19T09:17:22.708Z,9.38
2019-02-19T09:19:51.208Z,9.45
2019-02-19T09:22:19.837Z,9.75
2019-02-19T09:24:48.657Z,9.69
2019-02-19T09:27:17.213Z,9.65
2019-02-19T09:29:47.560Z,9.47
2019-02-19T09:32:16.067Z,9.47
2019-02-19T09:34:44.637Z,9.53
2019-02-19T09:37:13.273Z,9.61
2019-02-19T09:39:41.948Z,9.55
2019-02-19T09:42:10.469Z,9.73
2019-02-19T09:44:38.925Z,9.78
2019-02-19T09:47:07.630Z,9.92
2019-02-19T09:49:36.310Z,9.84
2019-02-19T09:52:04.965Z,10.12
2019-02-19T09:54:33.551Z,10.37
2019-02-19T09:57:02.194Z,10.55
2019-02-19T09:59:30.808Z,10.61
2019-02-19T10:01:59.687Z,10.66
2019-02-19T10:04:28.240Z,10.71
2019-02-19T10:06:56.882Z,10.71
2019-02-19T10:09:25.527Z,10.77
2019-02-19T10:11:54.022Z,10.72
2019-02-19T10:14:22.705Z,10.76
2019-02-19T10:16:51.181Z,10.85
2019-02-19T10:19:19.670Z,10.89
2019-02-19T10:21:48.346Z,10.95
2019-02-19T10:24:16.986Z,10.98
2019-02-19T10:26:45.529Z,11.00
2019-02-19T10:29:14.031Z,11.01
2019-02-19T10:31:42.666Z,10.99
2019-02-19T10:34:11.344Z,11.24
2019-02-19T10:36:39.837Z,11.32
2019-02-19T10:39:10.914Z,11.34
2019-02-19T10:41:39.573Z,11.58
2019-02-19T10:44:08.201Z,11.56
2019-02-19T10:46:36.876Z,11.59
2019-02-19T10:49:12.588Z,11.47
2019-02-19T10:51:41.462Z,11.68
2019-02-19T10:54:10.048Z,11.76
2019-02-19T10:56:38.670Z,11.91
2019-02-19T10:59:07.390Z,11.88
2019-02-19T11:01:36.060Z,12.07
2019-02-19T11:04:04.680Z,12.16
2019-02-19T11:06:33.563Z,12.10
2019-02-19T11:09:02.271Z,12.21
2019-02-19T11:11:30.836Z,12.00
2019-02-19T11:13:59.355Z,12.11
2019-02-19T11:16:27.985Z,12.25
2019-02-19T11:18:56.627Z,12.36
2019-02-19T11:21:25.145Z,12.34
2019-02-19T11:23:53.648Z,12.34
2019-02-19T11:26:22.284Z,12.32
2019-02-19T11:28:50.967Z,12.46
2019-02-19T11:31:19.532Z,12.51
2019-02-19T11:33:48.241Z,12.74
2019-02-19T11:36:16.844Z,12.76
2019-02-19T11:38:45.400Z,12.80
2019-02-19T11:41:14.025Z,12.78
2019-02-19T11:43:42.685Z,12.86
2019-02-19T11:46:11.255Z,13.05
2019-02-19T11:48:39.749Z,13.11
2019-02-19T11:51:08.466Z,13.23
2019-02-19T11:53:37.101Z,13.26
2019-02-19T11:56:05.735Z,13.19
2019-02-19T11:58:34.343Z,13.22
2019-02-19T12:01:03.041Z,13.19
2019-02-19T12:03:31.676Z,13.26
2019-02-19T12:06:00.282Z,13.33
2019-02-19T12:08:28.766Z,13.33
2019-02-19T12:10:57.387Z,13.42
2019-02-19T12:13:26.021Z,13.39
2019-02-19T12:15:54.675Z,13.43
2019-02-19T12:18:23.366Z,13.34
2019-02-19T12:20:51.997Z,13.35
2019-02-19T12:23:20.622Z,13.34
2019-02-19T12:25:49.272Z,13.34
2019-02-19T12:28:17.747Z,13.39
2019-02-19T12:30:46.459Z,13.55
2019-02-19T12:33:15.309Z,13.59
2019-02-19T12:35:43.800Z,13.64
2019-02-19T12:38:12.378Z,13.55
2019-02-19T12:40:41.020Z,13.69
2019-02-19T12:43:09.701Z,13.85
2019-02-19T12:45:38.311Z,13.91
2019-02-19T12:48:07.035Z,13.90
2019-02-19T12:50:35.615Z,14.04
2019-02-19T12:53:04.234Z,14.10
2019-02-19T12:55:32.902Z,14.14
2019-02-19T12:58:01.530Z,13.99
2019-02-19T13:00:30.016Z,14.05
2019-02-19T13:02:58.554Z,14.12
2019-02-19T13:05:27.193Z,14.13
2019-02-19T13:07:55.830Z,14.19
2019-02-19T13:10:24.349Z,14.32
2019-02-19T13:12:52.918Z,14.27
2019-02-19T13:15:22.447Z,14.40
2019-02-19T13:17:51.277Z,14.53
2019-02-19T13:20:19.856Z,14.41
2019-02-19T13:22:48.337Z,14.46
2019-02-19T13:25:17.176Z,14.55
2019-02-19T13:27:45.801Z,14.43
2019-02-19T13:30:16.878Z,14.41
2019-02-19T13:32:45.538Z,14.35
2019-02-19T13:35:14.368Z,14.39
2019-02-19T13:37:43.014Z,14.37
2019-02-19T13:40:16.553Z,14.57
2019-02-19T13:42:45.176Z,14.50
2019-02-19T13:45:15.202Z,14.52
2019-02-19T13:47:43.864Z,14.46
2019-02-19T13:50:18.117Z,14.45
2019-02-19T13:52:51.510Z,14.56
2019-02-19T13:55:21.701Z,14.59
2019-02-19T13:57:50.398Z,14.64
2019-02-19T14:00:20.644Z,14.59
2019-02-19T14:02:49.320Z,14.65
2019-02-19T14:05:17.878Z,14.57
2019-02-19T14:07:46.358Z,14.57
2019-02-19T14:10:15.046Z,14.60
2019-02-19T14:12:43.675Z,14.61
2019-02-19T14:15:20.101Z,14.64
2019-02-19T14:17:48.720Z,14.61
2019-02-19T14:20:21.575Z,14.58
2019-02-19T14:22:54.464Z,14.53
2019-02-19T14:25:33.545Z,14.56
2019-02-19T14:28:15.881Z,14.57
2019-02-19T14:30:58.291Z,14.59
2019-02-19T14:33:48.651Z,14.58
2019-02-19T14:36:12.410Z,14.57
2019-02-19T14:38:48.712Z,14.59
2019-02-19T14:41:18.915Z,14.50
2019-02-19T14:44:05.614Z,14.56
2019-02-19T14:46:48.090Z,14.58
2019-02-19T14:49:37.504Z,14.55
2019-02-19T14:52:09.371Z,14.52
2019-02-19T14:54:39.690Z,14.46
2019-02-19T14:57:18.380Z,14.44
2019-02-19T14:59:57.840Z,14.42
2019-02-19T15:02:37.393Z,14.38
2019-02-19T15:05:14.695Z,14.37
2019-02-19T15:08:01.521Z,14.34
2019-02-19T15:10:48.282Z,14.35
2019-02-19T15:13:21.577Z,14.37
2019-02-19T15:16:00.751Z,14.33
2019-02-19T15:18:46.219Z,14.28
2019-02-19T15:21:25.664Z,14.27
2019-02-19T15:23:59.021Z,14.18
2019-02-19T15:26:47.584Z,14.15
2019-02-19T15:29:26.708Z,14.08
2019-02-19T15:32:13.223Z,14.11
2019-02-19T15:34:43.490Z,14.11
2019-02-19T15:37:25.745Z,14.02
2019-02-19T15:40:12.189Z,13.98
2019-02-19T15:42:48.491Z,13.97
2019-02-19T15:45:21.389Z,13.87
2019-02-19T15:48:07.847Z,13.80
2019-02-19T15:50:56.454Z,13.69
2019-02-19T15:53:42.028Z,13.55
2019-02-19T15:56:17.596Z,13.25
2019-02-19T15:58:59.317Z,13.02
2019-02-19T16:01:44.494Z,12.86
2019-02-19T16:04:15.001Z,12.68
2019-02-19T16:06:45.133Z,12.51
2019-02-19T16:09:31.540Z,12.32
2019-02-19T16:12:07.728Z,12.25
2019-02-19T16:14:44.011Z,12.17
2019-02-19T16:17:23.113Z,12.01
2019-02-19T16:20:02.676Z,11.81
2019-02-19T16:22:32.887Z,11.67
2019-02-19T16:25:17.865Z,11.60
2019-02-19T16:27:57.167Z,11.50
2019-02-19T16:30:30.145Z,11.39
2019-02-19T16:33:09.214Z,11.38
2019-02-19T16:35:39.442Z,11.39
2019-02-19T16:38:09.781Z,11.37
2019-02-19T16:40:40.045Z,11.24
2019-02-19T16:43:16.204Z,11.17
2019-02-19T16:45:46.320Z,11.15
2019-02-19T16:48:35.190Z,11.13
2019-02-19T16:51:16.390Z,11.13
2019-02-19T16:53:46.614Z,11.07
2019-02-19T16:56:22.730Z,11.05
2019-02-19T16:58:53.185Z,11.07
2019-02-19T17:01:26.100Z,11.10
2019-02-19T17:04:08.524Z,11.08
2019-02-19T17:06:47.730Z,11.05
2019-02-19T17:09:18.049Z,10.98
2019-02-19T17:11:57.334Z,10.98
2019-02-19T17:14:33.749Z,10.91
2019-02-19T17:17:04.006Z,10.84
2019-02-19T17:19:50.646Z,10.83
2019-02-19T17:22:23.254Z,10.83
2019-02-19T17:25:09.995Z,11.04
2019-02-19T17:27:49.058Z,11.10
2019-02-19T17:30:28.181Z,11.04
2019-02-19T17:33:01.356Z,10.92
2019-02-19T17:35:37.552Z,10.89
2019-02-19T17:38:16.856Z,10.71
2019-02-19T17:40:55.969Z,10.58
2019-02-19T17:43:26.092Z,10.52
2019-02-19T17:45:59.316Z,10.44
2019-02-19T17:48:35.427Z,10.19
2019-02-19T17:51:14.938Z,10.21
2019-02-19T17:53:45.176Z,10.27
2019-02-19T17:56:24.639Z,10.28
2019-02-19T17:58:57.976Z,10.26
2019-02-19T18:01:40.264Z,10.15
2019-02-19T18:04:25.812Z,9.98
2019-02-19T18:06:56.100Z,9.87
2019-02-19T18:09:26.361Z,9.80
2019-02-19T18:11:59.519Z,9.72
2019-02-19T18:14:46.239Z,9.62
2019-02-19T18:17:31.502Z,9.69
2019-02-19T18:20:00.290Z,9.53
2019-02-19T18:22:28.717Z,9.53
2019-02-19T18:24:57.381Z,9.53
2019-02-19T18:27:25.937Z,9.39
2019-02-19T18:29:54.503Z,9.25
2019-02-19T18:32:23.216Z,9.23
2019-02-19T18:34:51.832Z,9.15
2019-02-19T18:37:20.368Z,9.24
2019-02-19T18:39:48.946Z,9.33
2019-02-19T18:42:17.578Z,9.33
2019-02-19T18:44:46.209Z,9.27
2019-02-19T18:47:14.700Z,9.13
2019-02-19T18:49:43.302Z,9.06
2019-02-19T18:52:11.966Z,8.93
2019-02-19T18:54:49.880Z,8.95
2019-02-19T18:57:18.384Z,8.86
2019-02-19T18:59:46.941Z,8.83
2019-02-19T19:02:15.570Z,8.85
2019-02-19T19:04:44.052Z,8.71
2019-02-19T19:07:12.726Z,8.55
2019-02-19T19:09:41.352Z,8.59
2019-02-19T19:12:09.913Z,8.63
2019-02-19T19:14:38.462Z,8.56
2019-02-19T19:17:07.126Z,8.45
2019-02-19T19:19:35.758Z,8.39
2019-02-19T19:22:04.307Z,8.26
2019-02-19T19:24:32.963Z,8.22
2019-02-19T19:27:01.594Z,8.18
2019-02-19T19:29:31.271Z,8.13
2019-02-19T19:32:00.037Z,8.11
2019-02-19T19:34:28.516Z,8.03
2019-02-19T19:36:57.147Z,7.97
2019-02-19T19:39:25.814Z,8.00
2019-02-19T19:41:54.308Z,7.97
2019-02-19T19:44:24.906Z,8.02
2019-02-19T19:46:53.179Z,7.91
2019-02-19T19:49:21.747Z,7.76
2019-02-19T19:51:50.387Z,7.75
2019-02-19T19:54:19.057Z,7.68
2019-02-19T19:56:47.613Z,7.60
2019-02-19T19:59:16.166Z,7.54
2019-02-19T20:01:44.839Z,7.45
2019-02-19T20:04:13.457Z,7.38
2019-02-19T20:06:41.968Z,7.43
2019-02-19T20:09:10.659Z,7.46
2019-02-19T20:11:39.290Z,7.37
2019-02-19T20:14:07.921Z,7.33
2019-02-19T20:16:36.613Z,7.23
2019-02-19T20:19:05.299Z,7.13
2019-02-19T20:21:33.913Z,7.14
2019-02-19T20:24:02.430Z,7.13
2019-02-19T20:26:31.049Z,7.08
2019-02-19T20:28:59.675Z,6.95
2019-02-19T20:31:28.269Z,6.84
2019-02-19T20:33:56.755Z,6.80
2019-02-19T20:36:25.390Z,6.71
2019-02-19T20:38:54.043Z,6.59
2019-02-19T20:41:22.606Z,6.53
2019-02-19T20:43:51.178Z,6.41
2019-02-19T20:46:19.842Z,6.36
2019-02-19T20:48:48.479Z,6.29
2019-02-19T20:51:17.056Z,6.24
2019-02-19T20:53:45.589Z,6.23
2019-02-19T20:56:14.217Z,6.23
2019-02-19T20:58:42.853Z,6.18
2019-02-19T21:01:11.386Z,6.11
2019-02-19T21:03:40.024Z,5.98
2019-02-19T21:06:10.312Z,5.97
2019-02-19T21:08:39.274Z,5.88
2019-02-19T21:11:07.946Z,5.75
2019-02-19T21:13:36.569Z,5.66
2019-02-19T21:16:05.447Z,5.60
2019-02-19T21:18:33.942Z,5.53
2019-02-19T21:21:02.733Z,5.49
2019-02-19T21:23:31.724Z,5.34
2019-02-19T21:26:00.299Z,5.31
2019-02-19T21:28:28.869Z,5.33
2019-02-19T21:30:57.557Z,5.30
2019-02-19T21:33:26.196Z,5.27
2019-02-19T21:35:57.823Z,5.26
2019-02-19T21:38:25.023Z,5.14
2019-02-19T21:40:53.670Z,5.10
2019-02-19T21:43:22.160Z,5.15
2019-02-19T21:45:50.838Z,5.15
2019-02-19T21:48:19.474Z,5.01
2019-02-19T21:50:47.982Z,4.97
2019-02-19T21:53:16.534Z,4.97
2019-02-19T21:55:45.174Z,5.02
2019-02-19T21:58:13.809Z,4.95
2019-02-19T22:00:42.418Z,4.87
2019-02-19T22:03:10.904Z,4.84
2019-02-19T22:05:39.541Z,4.81
2019-02-19T22:08:08.215Z,4.79
2019-02-19T22:10:36.697Z,4.69
2019-02-19T22:13:05.258Z,4.66
2019-02-19T22:15:33.943Z,4.68
2019-02-19T22:18:02.583Z,4.68
2019-02-19T22:20:35.901Z,4.61
2019-02-19T22:23:04.649Z,4.56
2019-02-19T22:25:33.293Z,4.52
2019-02-19T22:28:01.933Z,4.51
2019-02-19T22:30:30.807Z,4.53
2019-02-19T22:33:05.408Z,4.49
2019-02-19T22:35:33.977Z,4.45
2019-02-19T22:38:02.712Z,4.39
2019-02-19T22:40:31.345Z,4.37
2019-02-19T22:42:59.974Z,4.40
2019-02-19T22:45:28.501Z,4.33
2019-02-19T22:47:56.989Z,4.38
2019-02-19T22:50:25.619Z,4.29
2019-02-19T22:52:54.271Z,4.23
2019-02-19T22:55:33.448Z,4.16
2019-02-19T22:58:02.127Z,4.20
2019-02-19T23:00:47.232Z,4.17
2019-02-19T23:03:17.728Z,4.16
2019-02-19T23:05:46.355Z,4.21
2019-02-19T23:08:14.924Z,4.20
2019-02-19T23:10:43.578Z,4.21
2019-02-19T23:13:12.200Z,4.16
2019-02-19T23:15:40.768Z,4.26
2019-02-19T23:18:09.299Z,4.29
2019-02-19T23:20:37.921Z,4.04
2019-02-19T23:23:06.573Z,3.93
2019-02-19T23:28:39.330Z,4.00
2019-02-19T23:31:07.882Z,3.75
2019-02-19T23:33:36.507Z,3.72
2019-02-19T23:36:18.819Z,3.80
2019-02-19T23:38:47.312Z,3.77
2019-02-19T23:41:15.810Z,3.70
2019-02-19T23:43:44.483Z,3.65
2019-02-19T23:46:12.968Z,3.56
2019-02-19T23:48:41.612Z,3.50
2019-02-19T23:51:10.265Z,3.47
2019-02-19T23:53:38.919Z,3.51
2019-02-19T23:56:07.443Z,3.57
2019-02-19T23:58:36.112Z,3.60
